Time;durP1;ratioP1;P1;durP2;ratioP2;P2;SDS_P1;SDS_P2;PMS_P1;PMS_P2;Temp;Humidity;BMP_temperature;BMP_pressure;BME280_temperature;BME280_humidity;BME280_pressure;Samples;Min_cycle;Max_cycle;Signal;HPM_P1;HPM_P2
2022/08/08 00:00:19;;;;;;;11.57;8.05;;;22.90;99.90;;;;;;4212545;28;20036;-66
2022/08/08 00:02:31;;;;;;;9.85;7.72;;;22.90;99.90;;;;;;4213765;28;20047;-63
2022/08/08 00:04:55;;;;;;;11.32;7.07;;;22.90;99.90;;;;;;4212751;28;20662;-64
2022/08/08 00:07:02;;;;;;;10.80;7.30;;;22.90;99.90;;;;;;4213751;28;20561;-68
2022/08/08 00:09:18;;;;;;;8.65;6.32;;;22.90;99.90;;;;;;4212708;28;20410;-65
2022/08/08 00:11:32;;;;;;;10.60;7.30;;;23.00;99.90;;;;;;4213872;28;20139;-68
2022/08/08 00:13:41;;;;;;;9.10;6.57;;;23.00;99.90;;;;;;4212661;28;20028;-64
2022/08/08 00:15:49;;;;;;;8.70;6.30;;;23.00;99.90;;;;;;4213398;28;20479;-72
2022/08/08 00:17:56;;;;;;;8.18;6.40;;;23.00;99.90;;;;;;4212543;28;20016;-64
2022/08/08 00:20:07;;;;;;;7.85;5.18;;;23.00;99.90;;;;;;4213785;28;20077;-65
2022/08/08 00:22:16;;;;;;;7.18;6.10;;;23.00;99.90;;;;;;4212454;28;20071;-65
2022/08/08 00:24:23;;;;;;;5.13;4.53;;;23.10;99.90;;;;;;4213546;28;20036;-64
2022/08/08 00:26:33;;;;;;;7.20;5.40;;;23.10;99.90;;;;;;4212248;28;20081;-64
2022/08/08 00:28:43;;;;;;;8.10;6.20;;;23.10;99.90;;;;;;4213344;28;20036;-64
2022/08/08 00:30:51;;;;;;;11.48;5.65;;;23.10;99.90;;;;;;4212432;28;20272;-66
2022/08/08 00:33:10;;;;;;;6.30;5.70;;;23.20;99.90;;;;;;4213492;28;20058;-68
2022/08/08 00:35:34;;;;;;;6.57;5.45;;;23.20;99.90;;;;;;4211958;28;20491;-64
2022/08/08 00:38:03;;;;;;;6.03;5.15;;;23.20;99.90;;;;;;4214201;28;20479;-64
2022/08/08 00:40:23;;;;;;;9.20;6.40;;;23.20;99.90;;;;;;4213136;28;20101;-70
2022/08/08 00:42:49;;;;;;;10.48;5.47;;;23.20;99.90;;;;;;4212354;28;20817;-65
2022/08/08 00:45:22;;;;;;;6.47;5.72;;;23.20;99.90;;;;;;4213353;28;20410;-68
2022/08/08 00:47:42;;;;;;;8.70;5.40;;;23.10;99.90;;;;;;4188132;28;20036;-66
2022/08/08 00:50:17;;;;;;;9.37;6.00;;;23.10;99.90;;;;;;4213217;28;20471;-65
2022/08/08 00:52:33;;;;;;;5.35;4.85;;;23.00;99.90;;;;;;4211954;28;20276;-65
2022/08/08 00:55:16;;;;;;;6.00;4.97;;;22.90;99.90;;;;;;4212863;28;20044;-69
2022/08/08 00:57:54;;;;;;;6.57;5.30;;;23.00;99.90;;;;;;4212406;28;20044;-65
2022/08/08 00:59:58;;;;;;;8.65;5.88;;;23.00;99.90;;;;;;4211749;28;20020;-64
2022/08/08 01:02:40;;;;;;;6.25;5.65;;;23.00;99.90;;;;;;4212871;28;20027;-71
2022/08/08 01:04:50;;;;;;;6.10;4.95;;;23.10;99.90;;;;;;4211831;28;20074;-71
2022/08/08 01:07:13;;;;;;;4.82;4.43;;;23.10;99.90;;;;;;4213016;28;20028;-66
2022/08/08 01:09:42;;;;;;;5.97;5.38;;;23.10;99.90;;;;;;4211691;28;20468;-66
2022/08/08 01:12:01;;;;;;;9.10;5.65;;;23.10;99.90;;;;;;4212858;28;20020;-65
2022/08/08 01:14:02;;;;;;;5.53;4.88;;;23.10;99.90;;;;;;4211774;28;20024;-67
2022/08/08 01:16:20;;;;;;;5.65;5.13;;;23.00;99.90;;;;;;4212504;28;20557;-64
2022/08/08 01:18:39;;;;;;;6.45;5.22;;;22.90;99.90;;;;;;4211666;28;20036;-71
2022/08/08 01:21:18;;;;;;;7.65;4.88;;;22.80;99.90;;;;;;4212353;28;20077;-65
2022/08/08 01:23:43;;;;;;;5.80;4.93;;;22.70;99.90;;;;;;4200495;28;20097;-65
2022/08/08 01:26:17;;;;;;;5.80;4.38;;;22.60;99.90;;;;;;4211667;28;20089;-64
2022/08/08 01:28:50;;;;;;;6.95;4.95;;;22.50;99.90;;;;;;4212621;28;20533;-64
2022/08/08 01:31:18;;;;;;;6.50;4.82;;;22.40;99.90;;;;;;4211514;28;20044;-64
2022/08/08 01:33:50;;;;;;;6.93;5.07;;;22.40;99.90;;;;;;4212426;28;20078;-66
2022/08/08 01:36:33;;;;;;;4.90;4.47;;;22.40;99.90;;;;;;4211507;28;20124;-68
2022/08/08 01:39:24;;;;;;;7.78;4.65;;;22.40;99.90;;;;;;4211279;28;20078;-64
2022/08/08 01:42:01;;;;;;;6.15;5.00;;;22.30;99.90;;;;;;4193243;28;20107;-65
2022/08/08 01:44:14;;;;;;;6.03;4.80;;;22.40;99.90;;;;;;4192238;28;20546;-63
2022/08/08 01:46:40;;;;;;;5.50;4.95;;;22.40;99.90;;;;;;4200611;28;20040;-63
2022/08/08 01:49:08;;;;;;;7.80;5.25;;;22.50;99.90;;;;;;4211262;28;20060;-64
2022/08/08 01:51:27;;;;;;;6.78;4.90;;;22.40;99.90;;;;;;4211427;28;20036;-66
2022/08/08 01:54:06;;;;;;;7.10;5.07;;;22.40;99.90;;;;;;4211095;28;20031;-64
2022/08/08 01:56:42;;;;;;;6.68;4.90;;;22.40;99.90;;;;;;4210961;28;20044;-65
2022/08/08 01:59:14;;;;;;;6.05;5.32;;;22.40;99.90;;;;;;4212149;28;20467;-67
2022/08/08 02:01:34;;;;;;;6.47;5.40;;;22.40;99.90;;;;;;4210703;28;20040;-72
2022/08/08 02:03:42;;;;;;;6.07;5.40;;;22.30;99.90;;;;;;4212145;28;20117;-65
2022/08/08 02:05:48;;;;;;;5.47;4.70;;;22.30;99.90;;;;;;4210575;28;20024;-71
2022/08/08 02:08:24;;;;;;;8.05;6.13;;;22.30;99.90;;;;;;4212091;28;20032;-67
2022/08/08 02:10:46;;;;;;;8.43;7.43;;;22.40;99.90;;;;;;4210675;28;20081;-65
2022/08/08 02:12:58;;;;;;;12.85;9.02;;;22.30;99.90;;;;;;4211090;28;20077;-69
2022/08/08 02:15:08;;;;;;;13.38;9.07;;;22.30;99.90;;;;;;4210801;28;20425;-67
2022/08/08 02:17:41;;;;;;;11.80;7.60;;;22.20;99.90;;;;;;4211112;28;20421;-65
2022/08/08 02:19:53;;;;;;;7.38;5.80;;;22.20;99.90;;;;;;4211534;28;20040;-65
2022/08/08 02:24:30;;;;;;;7.65;5.32;;;21.90;99.90;;;;;;4211934;28;20028;-65
2022/08/08 02:26:41;;;;;;;8.05;5.25;;;21.80;99.90;;;;;;4210511;28;20441;-65
2022/08/08 02:28:49;;;;;;;8.45;5.80;;;21.60;99.90;;;;;;4211372;28;20039;-64
2022/08/08 02:30:50;;;;;;;7.25;6.03;;;21.50;99.90;;;;;;4210065;28;20073;-64
2022/08/08 02:33:23;;;;;;;8.68;5.65;;;21.40;99.90;;;;;;4211324;28;20120;-66
2022/08/08 02:35:40;;;;;;;10.25;6.57;;;21.30;99.90;;;;;;4200888;28;20040;-68
2022/08/08 02:38:38;;;;;;;7.82;6.07;;;21.30;99.90;;;;;;4211525;28;20023;-65
2022/08/08 02:41:13;;;;;;;10.60;7.43;;;21.30;99.90;;;;;;4191646;28;20086;-66
2022/08/08 02:43:54;;;;;;;11.05;6.85;;;21.30;99.90;;;;;;4191986;28;20369;-65
2022/08/08 02:46:14;;;;;;;14.50;7.25;;;21.30;99.90;;;;;;4202694;28;20044;-68
2022/08/08 02:48:47;;;;;;;9.40;7.70;;;21.30;99.90;;;;;;4210509;28;20443;-68
2022/08/08 02:51:25;;;;;;;11.27;7.68;;;21.30;99.90;;;;;;4211338;28;20058;-72
2022/08/08 02:54:03;;;;;;;12.07;8.80;;;21.30;99.90;;;;;;4210405;28;20817;-65
2022/08/08 02:56:35;;;;;;;20.33;9.73;;;21.20;99.90;;;;;;4210636;28;20113;-65
2022/08/08 02:59:28;;;;;;;13.43;9.40;;;21.20;99.90;;;;;;4211247;28;20032;-69
2022/08/08 03:02:14;;;;;;;11.98;9.60;;;21.00;99.90;;;;;;4209986;28;20028;-68
2022/08/08 03:04:33;;;;;;;17.35;12.73;;;21.00;99.90;;;;;;4205274;28;20423;-66
2022/08/08 03:07:08;;;;;;;16.95;12.05;;;21.00;99.90;;;;;;4212410;28;20457;-65
2022/08/08 03:09:54;;;;;;;19.80;12.52;;;20.90;99.90;;;;;;4213968;28;20089;-69
2022/08/08 03:12:13;;;;;;;19.52;13.20;;;20.80;99.90;;;;;;4198267;28;20437;-67
2022/08/08 03:14:26;;;;;;;17.70;12.67;;;20.70;99.90;;;;;;4213560;28;20024;-64
2022/08/08 03:16:27;;;;;;;18.65;12.88;;;20.70;99.90;;;;;;4214682;28;20356;-65
2022/08/08 03:18:59;;;;;;;15.88;11.73;;;20.80;99.90;;;;;;4213294;28;20069;-63
2022/08/08 03:21:00;;;;;;;17.35;12.57;;;20.80;99.90;;;;;;4199564;28;20024;-72
2022/08/08 03:23:01;;;;;;;17.75;12.82;;;20.80;99.90;;;;;;4213393;28;20156;-68
2022/08/08 03:25:05;;;;;;;16.33;11.52;;;20.80;99.90;;;;;;4214299;28;20525;-64
2022/08/08 03:27:17;;;;;;;15.93;11.80;;;20.70;99.90;;;;;;4213071;28;20442;-63
2022/08/08 03:29:28;;;;;;;14.10;10.98;;;20.70;99.90;;;;;;4214552;28;20040;-64
2022/08/08 03:33:51;;;;;;;15.32;11.88;;;20.70;99.90;;;;;;4214318;28;20081;-64
2022/08/08 03:35:53;;;;;;;14.82;11.95;;;20.70;99.90;;;;;;4213102;28;20059;-68
2022/08/08 03:37:55;;;;;;;16.98;12.23;;;20.70;99.90;;;;;;4214514;28;20040;-68
2022/08/08 03:40:01;;;;;;;17.48;11.88;;;20.60;99.90;;;;;;4213153;28;20430;-66
2022/08/08 03:42:03;;;;;;;14.60;11.95;;;20.60;99.90;;;;;;4214338;28;20044;-66
2022/08/08 03:44:05;;;;;;;17.63;11.73;;;20.60;99.90;;;;;;4212836;28;20017;-64
2022/08/08 03:46:06;;;;;;;18.33;11.73;;;20.70;99.90;;;;;;4213939;28;20459;-63
2022/08/08 03:48:08;;;;;;;20.13;12.95;;;20.60;99.90;;;;;;4213174;28;20066;-65
2022/08/08 03:50:18;;;;;;;15.25;11.90;;;20.60;99.90;;;;;;4213441;28;20089;-69
2022/08/08 03:52:19;;;;;;;15.07;12.00;;;20.60;99.90;;;;;;4213008;28;20036;-64
2022/08/08 03:54:21;;;;;;;19.15;12.18;;;20.60;99.90;;;;;;4212896;28;20268;-65
2022/08/08 03:56:22;;;;;;;15.07;10.82;;;20.60;99.90;;;;;;4213294;28;20040;-65
2022/08/08 03:58:24;;;;;;;15.75;11.27;;;20.60;99.90;;;;;;4212777;28;20039;-65
2022/08/08 04:00:28;;;;;;;17.60;11.27;;;20.60;99.90;;;;;;4213376;28;20108;-65
2022/08/08 04:02:29;;;;;;;13.05;10.50;;;20.60;99.90;;;;;;4212612;28;20046;-63
2022/08/08 04:04:36;;;;;;;16.50;10.90;;;20.70;99.90;;;;;;4213488;28;20097;-66
2022/08/08 04:06:38;;;;;;;13.85;11.05;;;20.70;99.90;;;;;;4212563;28;20422;-63
2022/08/08 04:08:40;;;;;;;13.68;11.05;;;20.80;99.90;;;;;;4213744;28;20024;-64
2022/08/08 04:10:47;;;;;;;15.00;11.45;;;20.80;99.90;;;;;;4212362;28;20044;-64
2022/08/08 04:12:48;;;;;;;18.40;10.90;;;20.80;99.90;;;;;;4213717;28;20493;-65
2022/08/08 04:14:49;;;;;;;18.98;12.55;;;20.80;99.90;;;;;;4212689;28;20438;-65
2022/08/08 04:16:50;;;;;;;14.85;12.23;;;20.80;99.90;;;;;;4212544;28;20448;-65
2022/08/08 04:18:51;;;;;;;16.27;10.90;;;20.80;99.90;;;;;;4212189;28;20024;-64
2022/08/08 04:20:52;;;;;;;16.88;11.23;;;20.80;99.90;;;;;;4213594;28;20422;-65
2022/08/08 04:22:54;;;;;;;17.25;11.50;;;20.90;99.90;;;;;;4212168;28;20032;-64
2022/08/08 04:24:55;;;;;;;14.30;11.30;;;21.00;99.90;;;;;;4212696;28;20040;-65
2022/08/08 04:26:57;;;;;;;13.27;10.02;;;21.00;99.90;;;;;;4212988;28;20098;-65
2022/08/08 04:28:59;;;;;;;15.45;10.18;;;21.10;99.90;;;;;;4212583;28;20032;-64
2022/08/08 04:31:00;;;;;;;13.48;11.25;;;21.20;99.90;;;;;;4212737;28;20036;-64
2022/08/08 04:33:01;;;;;;;16.13;11.20;;;21.30;99.90;;;;;;4212057;28;20101;-64
2022/08/08 04:35:03;;;;;;;15.60;10.82;;;21.30;99.90;;;;;;4212891;28;20044;-64
2022/08/08 04:37:04;;;;;;;13.55;10.57;;;21.30;99.90;;;;;;4211132;28;20090;-64
2022/08/08 04:39:05;;;;;;;12.18;9.75;;;21.30;99.90;;;;;;4211116;28;20032;-65
2022/08/08 04:41:07;;;;;;;14.18;10.35;;;21.30;99.90;;;;;;4208645;28;20109;-64
2022/08/08 04:43:08;;;;;;;11.25;9.30;;;21.30;99.90;;;;;;4212763;28;20028;-66
2022/08/08 04:45:09;;;;;;;11.57;9.32;;;21.40;99.90;;;;;;4210673;28;20046;-72
2022/08/08 04:47:11;;;;;;;11.27;9.18;;;21.50;99.90;;;;;;4212604;28;20039;-65
2022/08/08 04:49:12;;;;;;;11.75;8.77;;;21.60;99.90;;;;;;4211334;28;20036;-64
2022/08/08 04:51:13;;;;;;;11.93;9.73;;;21.80;99.90;;;;;;4213096;28;20112;-66
2022/08/08 04:53:14;;;;;;;11.80;9.15;;;21.80;99.90;;;;;;4211746;28;20024;-67
2022/08/08 04:55:15;;;;;;;10.13;9.07;;;21.80;99.90;;;;;;4211448;28;20581;-65
2022/08/08 04:57:16;;;;;;;15.98;10.80;;;21.70;99.90;;;;;;4211652;28;20089;-67
2022/08/08 04:59:18;;;;;;;13.07;9.70;;;21.70;99.90;;;;;;4211999;28;20086;-64
2022/08/08 05:01:19;;;;;;;12.63;9.02;;;21.70;99.90;;;;;;4212360;28;20016;-65
2022/08/08 05:03:20;;;;;;;17.70;9.90;;;21.70;99.90;;;;;;4211904;28;20149;-65
2022/08/08 05:05:21;;;;;;;11.95;9.48;;;21.70;99.90;;;;;;4212650;28;20032;-65
2022/08/08 05:07:22;;;;;;;10.70;8.95;;;21.70;99.90;;;;;;4211948;28;20089;-65
2022/08/08 05:09:24;;;;;;;12.02;8.55;;;21.70;99.90;;;;;;4212384;28;20048;-71
2022/08/08 05:11:25;;;;;;;9.90;8.23;;;21.70;99.90;;;;;;4211974;28;20027;-63
2022/08/08 05:13:26;;;;;;;10.43;8.27;;;21.80;99.90;;;;;;4212193;28;20036;-63
2022/08/08 05:15:27;;;;;;;15.32;9.57;;;21.80;99.90;;;;;;4211064;28;20485;-65
2022/08/08 05:17:28;;;;;;;10.57;8.95;;;21.90;99.90;;;;;;4210700;28;20504;-66
2022/08/08 05:19:29;;;;;;;10.13;9.00;;;22.00;99.90;;;;;;4211236;28;20036;-64
2022/08/08 05:21:31;;;;;;;10.85;9.10;;;22.20;99.90;;;;;;4212355;28;20036;-65
2022/08/08 05:23:32;;;;;;;14.68;9.05;;;22.30;99.90;;;;;;4211097;28;20085;-64
2022/08/08 05:25:33;;;;;;;15.55;8.63;;;22.40;99.90;;;;;;4212082;28;20133;-67
2022/08/08 05:27:34;;;;;;;12.48;8.18;;;22.50;99.90;;;;;;4211309;28;20040;-66
2022/08/08 05:29:36;;;;;;;11.75;8.60;;;22.80;99.90;;;;;;4210736;28;20036;-68
2022/08/08 05:31:37;;;;;;;12.32;8.93;;;22.90;99.90;;;;;;4211590;28;20152;-67
2022/08/08 05:33:38;;;;;;;11.55;8.73;;;23.00;99.90;;;;;;4211276;28;20463;-65
2022/08/08 05:35:41;;;;;;;12.68;9.30;;;23.10;99.90;;;;;;4211930;28;20157;-66
2022/08/08 05:37:51;;;;;;;10.80;9.63;;;23.30;99.90;;;;;;4210823;28;20051;-65
2022/08/08 05:39:54;;;;;;;11.15;9.43;;;23.30;99.90;;;;;;4211811;28;20085;-64
2022/08/08 05:41:58;;;;;;;11.00;9.07;;;23.30;99.90;;;;;;4210924;28;20032;-66
2022/08/08 05:44:08;;;;;;;15.25;10.05;;;23.40;99.90;;;;;;4211802;28;20044;-64
2022/08/08 05:46:10;;;;;;;9.88;8.88;;;23.30;99.90;;;;;;4210566;28;20085;-65
2022/08/08 05:48:11;;;;;;;9.68;8.70;;;23.40;99.90;;;;;;4211646;28;20036;-66
2022/08/08 05:50:12;;;;;;;11.93;9.77;;;23.40;99.90;;;;;;4210669;28;20024;-65
2022/08/08 05:52:15;;;;;;;13.63;9.95;;;23.40;99.90;;;;;;4211788;28;20039;-65
2022/08/08 05:54:18;;;;;;;15.60;9.80;;;23.50;99.90;;;;;;4210628;28;20475;-65
2022/08/08 05:56:21;;;;;;;10.75;9.00;;;23.50;99.90;;;;;;4211536;28;20065;-65
2022/08/08 05:58:30;;;;;;;11.90;9.25;;;23.50;99.90;;;;;;4210460;28;20541;-65
2022/08/08 06:00:31;;;;;;;15.93;9.88;;;23.50;99.90;;;;;;4211766;28;20028;-68
2022/08/08 06:04:58;;;;;;;12.55;10.00;;;23.90;99.90;;;;;;4211891;28;20032;-67
2022/08/08 06:06:59;;;;;;;16.35;9.57;;;24.60;99.90;;;;;;4210558;28;20016;-66
2022/08/08 06:09:04;;;;;;;12.85;9.88;;;24.90;99.90;;;;;;4211360;28;20024;-65
2022/08/08 06:11:05;;;;;;;27.55;9.88;;;24.80;99.90;;;;;;4210210;28;20024;-65
2022/08/08 06:13:08;;;;;;;12.70;9.02;;;24.60;99.90;;;;;;4211256;28;20081;-66
2022/08/08 06:15:10;;;;;;;8.30;7.50;;;24.60;99.90;;;;;;4210409;28;20081;-65
2022/08/08 06:17:11;;;;;;;9.65;7.55;;;24.60;99.90;;;;;;4210785;28;20105;-67
2022/08/08 06:19:15;;;;;;;9.80;7.35;;;24.80;99.90;;;;;;4210718;28;20044;-65
2022/08/08 06:21:18;;;;;;;15.05;6.93;;;25.10;99.90;;;;;;4675755;22;20103;-68
2022/08/08 06:23:20;;;;;;;12.45;7.55;;;25.30;99.90;;;;;;4193802;28;20074;-72
2022/08/08 06:25:22;;;;;;;17.25;8.13;;;25.50;99.90;;;;;;4193740;28;20094;-68
2022/08/08 06:27:49;;;;;;;8.85;6.97;;;25.70;99.90;;;;;;4194386;28;20448;-67
2022/08/08 06:30:06;;;;;;;8.35;7.22;;;25.90;99.90;;;;;;4193770;28;20078;-65
2022/08/08 06:32:12;;;;;;;10.40;7.38;;;25.60;99.90;;;;;;4193319;28;20044;-69
2022/08/08 06:34:17;;;;;;;12.45;7.20;;;25.30;99.90;;;;;;4193186;28;20036;-69
2022/08/08 06:36:29;;;;;;;9.38;7.53;;;25.30;99.90;;;;;;4193788;28;20430;-66
2022/08/08 06:38:35;;;;;;;10.73;7.93;;;25.30;99.90;;;;;;4193645;28;20032;-66
2022/08/08 06:40:38;;;;;;;8.65;7.40;;;25.10;99.90;;;;;;4192288;28;20040;-72
2022/08/08 06:42:53;;;;;;;11.48;7.82;;;24.70;99.90;;;;;;4193366;28;20066;-66
2022/08/08 06:44:57;;;;;;;8.27;7.47;;;24.60;99.90;;;;;;4194001;28;20044;-70
2022/08/08 06:46:58;;;;;;;11.00;8.57;;;24.50;99.90;;;;;;4193383;28;20029;-66
2022/08/08 06:48:59;;;;;;;10.98;8.63;;;24.50;99.90;;;;;;4194428;28;20032;-66
2022/08/08 06:51:03;;;;;;;11.38;8.93;;;24.70;99.90;;;;;;4193358;28;20028;-67
2022/08/08 06:53:07;;;;;;;10.15;8.75;;;24.80;99.90;;;;;;4193945;28;20090;-66
2022/08/08 06:55:09;;;;;;;12.07;6.63;;;24.80;99.90;;;;;;4191789;28;20091;-69
2022/08/08 06:57:10;;;;;;;11.82;6.82;;;24.90;99.90;;;;;;4194287;28;20044;-65
2022/08/08 06:59:11;;;;;;;10.30;6.90;;;24.80;99.90;;;;;;4193146;28;20033;-67
2022/08/08 07:01:13;;;;;;;10.50;7.47;;;24.80;99.90;;;;;;4194333;28;20040;-67
2022/08/08 07:03:33;;;;;;;7.90;6.22;;;24.70;99.90;;;;;;4193333;28;20476;-66
2022/08/08 07:05:38;;;;;;;9.73;6.70;;;24.70;99.90;;;;;;4194183;28;20033;-66
2022/08/08 07:07:51;;;;;;;8.30;7.15;;;24.70;99.90;;;;;;4193081;28;20422;-66
2022/08/08 07:10:03;;;;;;;10.85;7.38;;;24.70;99.90;;;;;;4194209;28;20484;-72
2022/08/08 07:12:07;;;;;;;8.75;6.57;;;24.70;99.90;;;;;;4193010;28;20086;-67
2022/08/08 07:14:23;;;;;;;10.15;6.63;;;24.70;99.90;;;;;;4193960;28;20078;-70
2022/08/08 07:16:54;;;;;;;6.68;5.97;;;24.70;99.90;;;;;;4193014;28;20361;-72
2022/08/08 07:19:17;;;;;;;8.85;7.45;;;24.70;99.90;;;;;;4192113;28;20832;-65
2022/08/08 07:21:21;;;;;;;6.90;6.20;;;25.00;99.90;;;;;;4192897;28;20071;-73
2022/08/08 07:23:29;;;;;;;9.40;6.00;;;25.40;99.90;;;;;;4193860;28;20098;-67
2022/08/08 07:25:33;;;;;;;8.60;6.25;;;25.60;99.90;;;;;;4192732;28;20024;-66
2022/08/08 07:28:02;;;;;;;9.82;6.72;;;25.70;99.90;;;;;;4194064;28;20541;-71
2022/08/08 07:30:06;;;;;;;7.38;5.88;;;25.70;99.90;;;;;;4192488;28;20090;-66
2022/08/08 07:32:09;;;;;;;8.88;5.70;;;25.60;99.90;;;;;;4194171;28;20062;-66
2022/08/08 07:34:11;;;;;;;8.93;6.18;;;25.60;99.90;;;;;;4192117;28;20538;-68
2022/08/08 07:36:13;;;;;;;8.18;6.40;;;25.70;99.90;;;;;;4194161;28;20028;-66
2022/08/08 07:38:17;;;;;;;9.13;5.82;;;25.70;99.90;;;;;;4192640;28;20044;-67
2022/08/08 07:40:19;;;;;;;6.38;5.78;;;25.70;99.90;;;;;;4192131;28;20412;-70
2022/08/08 07:42:23;;;;;;;6.82;6.13;;;25.60;99.90;;;;;;4192240;28;20110;-67
2022/08/08 07:44:24;;;;;;;7.00;6.30;;;25.50;99.90;;;;;;4193916;28;20025;-67
2022/08/08 07:46:26;;;;;;;7.68;6.22;;;25.50;99.90;;;;;;4192650;28;20040;-69
2022/08/08 07:48:27;;;;;;;7.63;6.28;;;25.50;99.90;;;;;;4191933;28;20032;-64
2022/08/08 07:50:30;;;;;;;13.73;6.72;;;25.70;99.90;;;;;;4192584;28;20361;-68
2022/08/08 07:52:31;;;;;;;7.70;6.03;;;25.80;99.90;;;;;;4194961;28;20040;-65
2022/08/08 07:54:38;;;;;;;7.50;6.57;;;25.90;99.90;;;;;;4195809;28;20106;-65
2022/08/08 07:57:06;;;;;;;13.75;6.90;;;26.00;99.90;;;;;;4196201;28;20112;-71
2022/08/08 07:59:15;;;;;;;9.70;5.63;;;26.20;99.90;;;;;;4194759;28;20326;-68
2022/08/08 08:01:20;;;;;;;7.95;6.20;;;26.20;99.90;;;;;;4196428;28;20467;-65
2022/08/08 08:03:42;;;;;;;9.50;7.20;;;26.20;99.90;;;;;;4195427;28;20434;-70
2022/08/08 08:05:48;;;;;;;8.27;6.70;;;26.20;99.90;;;;;;4196542;28;20036;-70
2022/08/08 08:07:53;;;;;;;9.15;5.93;;;26.20;99.90;;;;;;4194994;28;20032;-67
2022/08/08 08:09:56;;;;;;;7.30;6.53;;;26.30;99.90;;;;;;4196191;28;20074;-65
2022/08/08 08:11:59;;;;;;;6.18;5.57;;;26.30;99.90;;;;;;4194902;28;20040;-66
2022/08/08 08:14:05;;;;;;;10.30;5.85;;;26.20;99.90;;;;;;4195894;28;20115;-66
2022/08/08 08:16:13;;;;;;;9.40;6.22;;;26.30;99.90;;;;;;4195623;28;20361;-65
2022/08/08 08:18:15;;;;;;;8.02;5.60;;;26.30;99.90;;;;;;4193885;28;20110;-66
2022/08/08 08:20:18;;;;;;;9.10;5.50;;;26.20;99.90;;;;;;4193864;28;20036;-73
2022/08/08 08:22:20;;;;;;;6.72;6.03;;;26.20;99.90;;;;;;4195250;28;20051;-73
2022/08/08 08:24:21;;;;;;;6.43;5.75;;;26.30;99.90;;;;;;4195920;28;20024;-66
2022/08/08 08:26:24;;;;;;;8.32;5.38;;;26.40;99.90;;;;;;4195005;28;20476;-66
2022/08/08 08:28:25;;;;;;;5.32;4.80;;;26.40;99.90;;;;;;4196310;28;20029;-66
2022/08/08 08:30:26;;;;;;;7.22;5.68;;;26.40;99.90;;;;;;4194839;28;20033;-73
2022/08/08 08:32:27;;;;;;;6.07;5.43;;;26.30;99.90;;;;;;4196213;28;20025;-66
2022/08/08 08:34:29;;;;;;;7.47;6.05;;;26.30;99.90;;;;;;4195158;28;20074;-73
2022/08/08 08:36:30;;;;;;;7.88;5.03;;;26.30;99.90;;;;;;4196000;28;20094;-67
2022/08/08 08:38:31;;;;;;;6.57;5.72;;;26.30;99.90;;;;;;4194875;28;20107;-66
2022/08/08 08:40:33;;;;;;;8.70;5.65;;;26.30;99.90;;;;;;4196129;28;20029;-70
2022/08/08 08:42:34;;;;;;;9.50;5.68;;;26.30;99.90;;;;;;4193318;28;20036;-68
2022/08/08 08:44:37;;;;;;;9.60;5.38;;;26.30;99.90;;;;;;4195705;28;20430;-69
2022/08/08 08:46:39;;;;;;;8.02;5.50;;;26.30;99.90;;;;;;4194608;28;20094;-67
2022/08/08 08:48:41;;;;;;;5.80;5.25;;;26.30;99.90;;;;;;4195627;28;20423;-66
2022/08/08 08:50:45;;;;;;;5.97;5.38;;;26.30;99.90;;;;;;4194668;28;20116;-73
2022/08/08 08:52:46;;;;;;;5.72;5.22;;;26.30;99.90;;;;;;4194980;28;20040;-70
2022/08/08 08:54:50;;;;;;;5.65;5.07;;;26.40;99.90;;;;;;4194766;28;20094;-73
2022/08/08 08:56:52;;;;;;;9.77;5.25;;;26.40;99.90;;;;;;4195069;28;20025;-66
2022/08/08 08:58:55;;;;;;;6.38;5.63;;;26.50;99.90;;;;;;4195580;28;20449;-73
2022/08/08 09:01:01;;;;;;;8.32;5.72;;;26.60;99.90;;;;;;4194566;28;20127;-68
2022/08/08 09:03:07;;;;;;;9.32;5.88;;;26.80;99.90;;;;;;4195659;28;20542;-65
2022/08/08 09:05:11;;;;;;;8.10;5.65;;;27.00;99.90;;;;;;4194620;28;20117;-69
2022/08/08 09:07:21;;;;;;;6.43;5.57;;;27.30;99.90;;;;;;4195222;28;20105;-72
2022/08/08 09:09:24;;;;;;;;;;;27.40;99.90;;;;;;4194900;28;20036;-73
2022/08/08 09:11:26;;;;;;;8.07;5.50;;;27.60;99.90;;;;;;4195742;28;19912;-67
2022/08/08 09:13:29;;;;;;;6.28;5.30;;;27.80;99.90;;;;;;4194705;28;20021;-66
2022/08/08 09:15:30;;;;;;;9.35;5.82;;;27.80;99.90;;;;;;4195319;28;20029;-69
2022/08/08 09:17:33;;;;;;;6.13;5.53;;;27.80;99.90;;;;;;4194337;28;20044;-65
2022/08/08 09:19:34;;;;;;;9.07;5.72;;;27.80;99.90;;;;;;4195546;28;20079;-72
2022/08/08 09:21:36;;;;;;;10.60;5.95;;;27.90;99.90;;;;;;4193722;28;20049;-65
2022/08/08 09:23:37;;;;;;;7.00;5.90;;;27.80;99.90;;;;;;4195361;28;20443;-66
2022/08/08 09:25:45;;;;;;;6.80;6.20;;;27.90;99.90;;;;;;4194122;28;20028;-66
2022/08/08 09:27:46;;;;;;;10.07;6.10;;;28.00;99.90;;;;;;4195191;28;20020;-66
2022/08/08 09:30:02;;;;;;;7.30;5.78;;;28.00;99.90;;;;;;4194433;28;20020;-68
2022/08/08 09:32:06;;;;;;;6.57;5.55;;;28.10;99.90;;;;;;4195147;28;20032;-70
2022/08/08 09:34:08;;;;;;;7.90;5.85;;;28.20;99.90;;;;;;4194326;28;20008;-69
2022/08/08 09:36:21;;;;;;;7.20;5.28;;;28.30;99.90;;;;;;4194788;28;20041;-66
2022/08/08 09:38:55;;;;;;;7.72;5.75;;;28.10;99.90;;;;;;4194221;28;20106;-66
2022/08/08 09:41:08;;;;;;;10.18;5.90;;;28.20;99.90;;;;;;4195413;28;20073;-71
2022/08/08 09:43:21;;;;;;;10.77;6.82;;;28.20;99.90;;;;;;4193483;28;20427;-67
2022/08/08 09:45:28;;;;;;;7.28;6.00;;;28.30;99.90;;;;;;4195354;28;20477;-73
2022/08/08 09:47:35;;;;;;;7.57;5.90;;;28.30;99.90;;;;;;4194021;28;20032;-68
2022/08/08 09:49:37;;;;;;;11.63;5.63;;;28.30;99.90;;;;;;4195087;28;20086;-70
2022/08/08 09:51:40;;;;;;;9.35;6.40;;;28.30;99.90;;;;;;4193171;28;20082;-69
2022/08/08 09:53:47;;;;;;;7.97;5.75;;;28.30;99.90;;;;;;4194241;28;20502;-69
2022/08/08 09:55:48;;;;;;;7.88;6.10;;;28.40;99.90;;;;;;4193769;28;20020;-67
2022/08/08 09:58:06;;;;;;;7.07;6.15;;;28.40;99.90;;;;;;4194571;28;20102;-66
2022/08/08 10:00:10;;;;;;;9.45;6.80;;;28.50;99.90;;;;;;4193661;28;20024;-69
2022/08/08 10:02:20;;;;;;;9.45;6.57;;;28.70;99.90;;;;;;4193921;28;20090;-73
2022/08/08 10:04:25;;;;;;;5.75;5.15;;;28.70;99.90;;;;;;4193729;28;20032;-67
2022/08/08 10:06:26;;;;;;;11.20;6.43;;;28.70;99.90;;;;;;4194058;28;20029;-66
2022/08/08 10:08:31;;;;;;;8.25;5.93;;;28.70;99.90;;;;;;4194004;28;20102;-66
2022/08/08 10:10:35;;;;;;;10.65;5.85;;;28.80;99.90;;;;;;4193861;28;20036;-66
2022/08/08 10:12:38;;;;;;;8.05;6.00;;;28.90;99.70;;;;;;4194186;28;20457;-65
2022/08/08 10:14:39;;;;;;;5.63;5.13;;;28.90;99.40;;;;;;4193320;28;20016;-66
2022/08/08 10:16:42;;;;;;;7.38;4.93;;;28.90;99.30;;;;;;4194251;28;20044;-65
2022/08/08 10:18:43;;;;;;;9.32;6.22;;;29.00;99.30;;;;;;4193167;28;20048;-65
2022/08/08 10:20:49;;;;;;;6.18;4.78;;;29.10;99.20;;;;;;4194214;28;20032;-66
2022/08/08 10:22:54;;;;;;;12.38;5.90;;;29.10;98.90;;;;;;4192946;28;20570;-65
2022/08/08 10:25:02;;;;;;;12.80;6.40;;;29.10;98.90;;;;;;4194552;28;20028;-67
2022/08/08 10:27:05;;;;;;;22.83;7.40;;;29.20;99.00;;;;;;4193491;28;20148;-66
2022/08/08 10:29:08;;;;;;;13.32;7.13;;;29.40;98.90;;;;;;4194526;28;20054;-66
2022/08/08 10:33:33;;;;;;;40.45;10.80;;;29.50;98.60;;;;;;4194270;28;20468;-65
2022/08/08 10:35:34;;;;;;;21.90;7.47;;;29.40;98.40;;;;;;4193255;28;20024;-65
2022/08/08 10:37:37;;;;;;;10.85;6.07;;;29.40;98.50;;;;;;4193690;28;20102;-68
2022/08/08 10:39:43;;;;;;;8.07;5.50;;;29.50;98.50;;;;;;4193120;28;20488;-65
2022/08/08 10:42:00;;;;;;;5.53;5.00;;;29.40;98.30;;;;;;4194626;28;20036;-71
2022/08/08 10:44:02;;;;;;;5.57;4.95;;;29.40;98.30;;;;;;4193331;28;20438;-65
2022/08/08 10:46:03;;;;;;;7.70;5.40;;;29.50;98.30;;;;;;4194369;28;20028;-68
2022/08/08 10:48:08;;;;;;;5.93;5.10;;;29.60;98.20;;;;;;4193243;28;20029;-70
2022/08/08 10:50:10;;;;;;;6.35;5.13;;;29.60;98.00;;;;;;4194331;28;20024;-68
2022/08/08 10:52:22;;;;;;;7.55;5.28;;;29.60;97.90;;;;;;4192830;28;20073;-70
2022/08/08 10:54:23;;;;;;;6.28;4.57;;;29.60;97.70;;;;;;4194219;28;20074;-66
2022/08/08 10:56:25;;;;;;;8.23;4.75;;;29.50;97.90;;;;;;4193160;28;20472;-71
2022/08/08 10:58:27;;;;;;;6.82;5.40;;;29.40;98.10;;;;;;4193872;28;20040;-69
2022/08/08 11:00:29;;;;;;;7.82;5.03;;;29.30;98.20;;;;;;4193481;28;20028;-67
2022/08/08 11:02:32;;;;;;;9.40;4.85;;;29.20;98.40;;;;;;4193471;28;20451;-67
2022/08/08 11:04:44;;;;;;;8.10;4.38;;;29.10;98.50;;;;;;4193683;28;20103;-68
2022/08/08 11:06:46;;;;;;;7.00;4.07;;;28.90;98.60;;;;;;4192970;28;20020;-66
2022/08/08 11:08:47;;;;;;;5.85;3.72;;;28.70;98.90;;;;;;4193535;28;20032;-66
2022/08/08 11:10:59;;;;;;;4.03;3.20;;;28.50;99.10;;;;;;4192618;28;20044;-71
2022/08/08 11:13:00;;;;;;;3.60;3.30;;;28.40;99.10;;;;;;4193495;28;20062;-70
2022/08/08 11:15:02;;;;;;;6.32;3.03;;;28.20;99.10;;;;;;4192666;28;20835;-65
2022/08/08 11:17:05;;;;;;;4.93;3.30;;;28.00;99.10;;;;;;4193912;28;20058;-71